sensor_id;sensor_type;location;lat;lon;timestamp;pressure;altitude;pressure_sealevel;temperature;humidity
48968;BME280;46511;53.148;8.204;2022-08-19T00:01:48;101353.13;;;17.14;100.00
48968;BME280;46511;53.148;8.204;2022-08-19T00:04:23;101347.13;;;17.11;100.00
48968;BME280;46511;53.148;8.204;2022-08-19T00:06:57;101341.75;;;17.11;100.00
48968;BME280;46511;53.148;8.204;2022-08-19T00:09:28;101349.81;;;17.11;100.00
48968;BME280;46511;53.148;8.204;2022-08-19T00:12:00;101352.25;;;17.14;100.00
48968;BME280;46511;53.148;8.204;2022-08-19T00:14:32;101348.84;;;17.12;100.00
48968;BME280;46511;53.148;8.204;2022-08-19T00:17:04;101346.84;;;17.03;100.00
48968;BME280;46511;53.148;8.204;2022-08-19T00:19:37;101346.53;;;17.07;100.00
48968;BME280;46511;53.148;8.204;2022-08-19T00:22:09;101346.66;;;17.06;100.00
48968;BME280;46511;53.148;8.204;2022-08-19T00:24:40;101340.75;;;17.01;100.00
48968;BME280;46511;53.148;8.204;2022-08-19T00:27:14;101344.66;;;16.97;100.00
48968;BME280;46511;53.148;8.204;2022-08-19T00:29:45;101338.00;;;16.90;100.00
48968;BME280;46511;53.148;8.204;2022-08-19T00:32:17;101329.22;;;16.88;100.00
48968;BME280;46511;53.148;8.204;2022-08-19T00:34:48;101338.00;;;16.90;100.00
48968;BME280;46511;53.148;8.204;2022-08-19T00:37:20;101336.31;;;16.89;100.00
48968;BME280;46511;53.148;8.204;2022-08-19T00:39:54;101342.66;;;16.88;100.00
48968;BME280;46511;53.148;8.204;2022-08-19T00:42:26;101344.69;;;16.84;100.00
48968;BME280;46511;53.148;8.204;2022-08-19T00:44:59;101336.31;;;16.89;100.00
48968;BME280;46511;53.148;8.204;2022-08-19T00:47:30;101334.59;;;16.88;100.00
48968;BME280;46511;53.148;8.204;2022-08-19T00:50:02;101334.91;;;16.83;100.00
48968;BME280;46511;53.148;8.204;2022-08-19T00:52:35;101344.06;;;16.80;100.00
48968;BME280;46511;53.148;8.204;2022-08-19T00:55:12;101338.94;;;16.77;100.00
48968;BME280;46511;53.148;8.204;2022-08-19T00:57:48;101347.72;;;16.79;100.00
48968;BME280;46511;53.148;8.204;2022-08-19T01:00:25;101342.13;;;16.82;100.00
48968;BME280;46511;53.148;8.204;2022-08-19T01:02:59;101345.53;;;16.84;100.00
48968;BME280;46511;53.148;8.204;2022-08-19T01:05:30;101345.66;;;16.83;100.00
48968;BME280;46511;53.148;8.204;2022-08-19T01:08:03;101337.47;;;16.84;100.00
48968;BME280;46511;53.148;8.204;2022-08-19T01:10:37;101343.69;;;16.85;100.00
48968;BME280;46511;53.148;8.204;2022-08-19T01:13:11;101356.75;;;16.78;100.00
48968;BME280;46511;53.148;8.204;2022-08-19T01:15:47;101355.88;;;16.78;100.00
48968;BME280;46511;53.148;8.204;2022-08-19T01:18:23;101346.78;;;16.68;100.00
48968;BME280;46511;53.148;8.204;2022-08-19T01:21:03;101344.28;;;16.77;100.00
48968;BME280;46511;53.148;8.204;2022-08-19T01:23:42;101341.94;;;16.73;100.00
48968;BME280;46511;53.148;8.204;2022-08-19T01:26:16;101332.19;;;16.72;100.00
48968;BME280;46511;53.148;8.204;2022-08-19T01:28:52;101334.41;;;16.65;100.00
48968;BME280;46511;53.148;8.204;2022-08-19T01:31:26;101333.13;;;16.58;100.00
48968;BME280;46511;53.148;8.204;2022-08-19T01:34:01;101331.66;;;16.54;100.00
48968;BME280;46511;53.148;8.204;2022-08-19T01:36:34;101328.88;;;16.55;100.00
48968;BME280;46511;53.148;8.204;2022-08-19T01:39:15;101323.84;;;16.51;100.00
48968;BME280;46511;53.148;8.204;2022-08-19T01:41:48;101319.47;;;16.50;100.00
48968;BME280;46511;53.148;8.204;2022-08-19T01:44:20;101307.03;;;16.49;100.00
48968;BME280;46511;53.148;8.204;2022-08-19T01:46:54;101311.63;;;16.47;100.00
48968;BME280;46511;53.148;8.204;2022-08-19T01:49:26;101312.81;;;16.43;100.00
48968;BME280;46511;53.148;8.204;2022-08-19T01:51:59;101304.16;;;16.39;100.00
48968;BME280;46511;53.148;8.204;2022-08-19T01:54:31;101307.91;;;16.37;100.00
48968;BME280;46511;53.148;8.204;2022-08-19T01:57:04;101308.13;;;16.34;100.00
48968;BME280;46511;53.148;8.204;2022-08-19T01:59:39;101304.72;;;16.32;100.00
48968;BME280;46511;53.148;8.204;2022-08-19T02:02:12;101300.50;;;16.27;100.00
48968;BME280;46511;53.148;8.204;2022-08-19T02:04:44;101287.97;;;16.28;100.00
48968;BME280;46511;53.148;8.204;2022-08-19T02:07:18;101283.94;;;16.22;100.00
48968;BME280;46511;53.148;8.204;2022-08-19T02:09:52;101281.44;;;16.19;100.00
48968;BME280;46511;53.148;8.204;2022-08-19T02:12:23;101276.31;;;16.16;100.00
48968;BME280;46511;53.148;8.204;2022-08-19T02:14:55;101276.31;;;16.16;100.00
48968;BME280;46511;53.148;8.204;2022-08-19T02:17:26;101279.97;;;16.15;100.00
48968;BME280;46511;53.148;8.204;2022-08-19T02:19:59;101271.81;;;16.17;100.00
48968;BME280;46511;53.148;8.204;2022-08-19T02:22:31;101285.63;;;16.23;100.00
48968;BME280;46511;53.148;8.204;2022-08-19T02:25:03;101287.56;;;16.21;100.00
48968;BME280;46511;53.148;8.204;2022-08-19T02:27:36;101289.47;;;16.19;100.00
48968;BME280;46511;53.148;8.204;2022-08-19T02:30:08;101280.69;;;16.17;100.00
48968;BME280;46511;53.148;8.204;2022-08-19T02:32:43;101282.66;;;16.15;100.00
48968;BME280;46511;53.148;8.204;2022-08-19T02:35:15;101279.97;;;16.15;100.00
48968;BME280;46511;53.148;8.204;2022-08-19T02:37:46;101282.03;;;16.12;100.00
48968;BME280;46511;53.148;8.204;2022-08-19T02:40:38;101274.19;;;16.09;100.00
48968;BME280;46511;53.148;8.204;2022-08-19T02:43:09;101282.22;;;16.09;100.00
48968;BME280;46511;53.148;8.204;2022-08-19T02:45:41;101280.31;;;15.98;100.00
48968;BME280;46511;53.148;8.204;2022-08-19T02:48:12;101285.34;;;16.03;100.00
48968;BME280;46511;53.148;8.204;2022-08-19T02:50:44;101283.66;;;16.02;100.00
48968;BME280;46511;53.148;8.204;2022-08-19T02:53:16;101284.81;;;15.97;100.00
48968;BME280;46511;53.148;8.204;2022-08-19T02:55:47;101289.75;;;15.91;100.00
48968;BME280;46511;53.148;8.204;2022-08-19T02:58:20;101291.25;;;15.95;100.00
48968;BME280;46511;53.148;8.204;2022-08-19T03:00:54;101288.88;;;15.90;100.00
48968;BME280;46511;53.148;8.204;2022-08-19T03:03:26;101284.63;;;15.88;100.00
48968;BME280;46511;53.148;8.204;2022-08-19T03:06:09;101269.94;;;15.93;100.00
48968;BME280;46511;53.148;8.204;2022-08-19T03:08:44;101268.22;;;15.92;100.00
48968;BME280;46511;53.148;8.204;2022-08-19T03:11:18;101280.97;;;15.89;100.00
48968;BME280;46511;53.148;8.204;2022-08-19T03:13:54;101279.91;;;15.79;100.00
48968;BME280;46511;53.148;8.204;2022-08-19T03:16:26;101285.38;;;15.77;100.00
48968;BME280;46511;53.148;8.204;2022-08-19T03:18:59;101292.56;;;15.77;100.00
48968;BME280;46511;53.148;8.204;2022-08-19T03:21:32;101285.25;;;15.79;100.00
48968;BME280;46511;53.148;8.204;2022-08-19T03:24:06;101293.41;;;15.90;100.00
48968;BME280;46511;53.148;8.204;2022-08-19T03:26:42;101294.72;;;15.84;100.00
48968;BME280;46511;53.148;8.204;2022-08-19T03:29:15;101283.78;;;15.75;100.00
48968;BME280;46511;53.148;8.204;2022-08-19T03:31:47;101289.75;;;15.78;100.00
48968;BME280;46511;53.148;8.204;2022-08-19T03:34:20;101284.97;;;15.83;100.00
48968;BME280;46511;53.148;8.204;2022-08-19T03:36:54;101288.50;;;15.84;100.00
48968;BME280;46511;53.148;8.204;2022-08-19T03:39:27;101292.13;;;15.83;100.00
48968;BME280;46511;53.148;8.204;2022-08-19T03:41:58;101289.13;;;15.75;100.00
48968;BME280;46511;53.148;8.204;2022-08-19T03:44:33;101284.81;;;15.72;100.00
48968;BME280;46511;53.148;8.204;2022-08-19T03:47:04;101288.16;;;15.63;100.00
48968;BME280;46511;53.148;8.204;2022-08-19T03:49:36;101291.88;;;15.48;100.00
48968;BME280;46511;53.148;8.204;2022-08-19T03:52:07;101285.66;;;15.47;100.00
48968;BME280;46511;53.148;8.204;2022-08-19T03:54:39;101283.09;;;15.46;100.00
48968;BME280;46511;53.148;8.204;2022-08-19T03:57:10;101281.81;;;15.51;100.00
48968;BME280;46511;53.148;8.204;2022-08-19T03:59:42;101289.09;;;15.49;100.00
48968;BME280;46511;53.148;8.204;2022-08-19T04:02:13;101281.41;;;15.45;100.00
48968;BME280;46511;53.148;8.204;2022-08-19T04:04:45;101295.72;;;15.43;100.00
48968;BME280;46511;53.148;8.204;2022-08-19T04:07:12;101294.00;;;15.42;100.00
48968;BME280;46511;53.148;8.204;2022-08-19T04:09:47;101291.44;;;15.41;100.00
48968;BME280;46511;53.148;8.204;2022-08-19T04:12:20;101286.09;;;15.41;100.00
48968;BME280;46511;53.148;8.204;2022-08-19T04:14:51;101286.09;;;15.41;100.00
48968;BME280;46511;53.148;8.204;2022-08-19T04:17:22;101289.31;;;15.46;100.00
48968;BME280;46511;53.148;8.204;2022-08-19T04:19:53;101303.34;;;15.37;100.00
48968;BME280;46511;53.148;8.204;2022-08-19T04:22:25;101293.59;;;15.49;100.00
48968;BME280;46511;53.148;8.204;2022-08-19T04:24:56;101306.00;;;15.37;100.00
48968;BME280;46511;53.148;8.204;2022-08-19T04:27:27;101294.44;;;15.36;100.00
48968;BME280;46511;53.148;8.204;2022-08-19T04:29:59;101292.09;;;15.57;100.00
48968;BME280;46511;53.148;8.204;2022-08-19T04:32:30;101301.09;;;15.56;100.00
48968;BME280;46511;53.148;8.204;2022-08-19T04:35:02;101298.97;;;15.61;100.00
48968;BME280;46511;53.148;8.204;2022-08-19T04:37:34;101305.00;;;15.65;100.00
48968;BME280;46511;53.148;8.204;2022-08-19T04:40:05;101309.91;;;15.71;100.00
48968;BME280;46511;53.148;8.204;2022-08-19T04:42:56;101308.63;;;15.77;100.00
48968;BME280;46511;53.148;8.204;2022-08-19T04:45:27;101309.38;;;15.79;100.00
48968;BME280;46511;53.148;8.204;2022-08-19T04:47:58;101306.38;;;15.96;100.00
48968;BME280;46511;53.148;8.204;2022-08-19T04:50:32;101305.41;;;15.97;100.00
48968;BME280;46511;53.148;8.204;2022-08-19T04:53:03;101304.19;;;16.01;100.00
48968;BME280;46511;53.148;8.204;2022-08-19T04:55:38;101296.38;;;16.11;100.00
48968;BME280;46511;53.148;8.204;2022-08-19T04:58:11;101308.59;;;16.15;100.00
48968;BME280;46511;53.148;8.204;2022-08-19T05:00:42;101318.78;;;16.22;100.00
48968;BME280;46511;53.148;8.204;2022-08-19T05:03:14;101327.31;;;16.27;100.00
48968;BME280;46511;53.148;8.204;2022-08-19T05:05:48;101329.34;;;16.49;100.00
48968;BME280;46511;53.148;8.204;2022-08-19T05:08:20;101336.13;;;16.66;100.00
48968;BME280;46511;53.148;8.204;2022-08-19T05:10:52;101338.63;;;16.69;100.00
48968;BME280;46511;53.148;8.204;2022-08-19T05:13:24;101337.47;;;16.84;100.00
48968;BME280;46511;53.148;8.204;2022-08-19T05:15:56;101341.19;;;16.95;100.00
48968;BME280;46511;53.148;8.204;2022-08-19T05:18:29;101338.34;;;17.09;100.00
48968;BME280;46511;53.148;8.204;2022-08-19T05:21:19;101332.03;;;17.21;100.00
48968;BME280;46511;53.148;8.204;2022-08-19T05:24:10;101338.66;;;17.28;100.00
48968;BME280;46511;53.148;8.204;2022-08-19T05:26:43;101331.09;;;17.33;100.00
48968;BME280;46511;53.148;8.204;2022-08-19T05:29:19;101339.72;;;17.61;100.00
48968;BME280;46511;53.148;8.204;2022-08-19T05:31:52;101327.00;;;17.98;100.00
48968;BME280;46511;53.148;8.204;2022-08-19T05:34:25;101317.34;;;18.18;100.00
48968;BME280;46511;53.148;8.204;2022-08-19T05:36:59;101316.13;;;18.33;100.00
48968;BME280;46511;53.148;8.204;2022-08-19T05:39:34;101315.47;;;18.52;100.00
48968;BME280;46511;53.148;8.204;2022-08-19T05:42:07;101309.06;;;18.64;100.00
48968;BME280;46511;53.148;8.204;2022-08-19T05:44:41;101302.66;;;18.67;100.00
48968;BME280;46511;53.148;8.204;2022-08-19T05:47:15;101310.59;;;19.00;100.00
48968;BME280;46511;53.148;8.204;2022-08-19T05:49:47;101302.44;;;19.64;99.61
48968;BME280;46511;53.148;8.204;2022-08-19T05:52:20;101308.41;;;20.69;90.54
48968;BME280;46511;53.148;8.204;2022-08-19T05:54:52;101304.75;;;21.28;84.18
48968;BME280;46511;53.148;8.204;2022-08-19T05:57:26;101299.91;;;22.35;78.47
48968;BME280;46511;53.148;8.204;2022-08-19T05:59:59;101296.63;;;23.66;72.48
48968;BME280;46511;53.148;8.204;2022-08-19T06:02:32;101291.09;;;24.44;65.96
48968;BME280;46511;53.148;8.204;2022-08-19T06:05:04;101291.56;;;25.39;60.98
48968;BME280;46511;53.148;8.204;2022-08-19T06:07:40;101291.09;;;26.15;59.57
48968;BME280;46511;53.148;8.204;2022-08-19T06:10:11;101289.00;;;24.96;64.23
48968;BME280;46511;53.148;8.204;2022-08-19T06:12:43;101289.25;;;24.53;66.23
48968;BME280;46511;53.148;8.204;2022-08-19T06:15:14;101287.09;;;26.73;59.69
48968;BME280;46511;53.148;8.204;2022-08-19T06:17:45;101278.78;;;28.68;51.32
48968;BME280;46511;53.148;8.204;2022-08-19T06:20:17;101276.69;;;29.06;49.06
48968;BME280;46511;53.148;8.204;2022-08-19T06:22:50;101284.09;;;29.34;48.31
48968;BME280;46511;53.148;8.204;2022-08-19T06:25:22;101286.19;;;28.89;48.81
48968;BME280;46511;53.148;8.204;2022-08-19T06:27:53;101279.94;;;30.00;46.58
48968;BME280;46511;53.148;8.204;2022-08-19T06:30:24;101277.69;;;30.58;42.91
48968;BME280;46511;53.148;8.204;2022-08-19T06:32:56;101283.66;;;30.68;41.57
48968;BME280;46511;53.148;8.204;2022-08-19T06:35:27;101286.91;;;30.37;43.63
48968;BME280;46511;53.148;8.204;2022-08-19T06:38:00;101289.19;;;30.88;42.35
48968;BME280;46511;53.148;8.204;2022-08-19T06:40:31;101288.81;;;31.18;40.94
48968;BME280;46511;53.148;8.204;2022-08-19T06:43:03;101285.97;;;30.17;43.24
48968;BME280;46511;53.148;8.204;2022-08-19T06:45:36;101282.47;;;31.04;42.57
48968;BME280;46511;53.148;8.204;2022-08-19T06:48:09;101287.69;;;30.73;41.81
48968;BME280;46511;53.148;8.204;2022-08-19T06:50:40;101295.59;;;31.75;40.39
48968;BME280;46511;53.148;8.204;2022-08-19T06:53:11;101292.38;;;31.98;40.79
48968;BME280;46511;53.148;8.204;2022-08-19T06:55:43;101296.66;;;33.21;36.91
48968;BME280;46511;53.148;8.204;2022-08-19T06:58:14;101292.78;;;33.54;35.78
48968;BME280;46511;53.148;8.204;2022-08-19T07:00:45;101289.22;;;34.15;33.81
48968;BME280;46511;53.148;8.204;2022-08-19T07:03:17;101293.47;;;33.49;35.85
48968;BME280;46511;53.148;8.204;2022-08-19T07:05:48;101293.81;;;33.03;35.25
48968;BME280;46511;53.148;8.204;2022-08-19T07:08:19;101301.16;;;32.84;35.86
48968;BME280;46511;53.148;8.204;2022-08-19T07:10:51;101302.66;;;33.12;35.75
48968;BME280;46511;53.148;8.204;2022-08-19T07:13:22;101302.75;;;32.99;35.52
48968;BME280;46511;53.148;8.204;2022-08-19T07:15:54;101301.03;;;33.29;36.68
48968;BME280;46511;53.148;8.204;2022-08-19T07:18:25;101298.16;;;32.86;36.61
48968;BME280;46511;53.148;8.204;2022-08-19T07:21:08;101303.19;;;33.52;34.82
48968;BME280;46511;53.148;8.204;2022-08-19T07:23:44;101308.06;;;32.93;36.40
48968;BME280;46511;53.148;8.204;2022-08-19T07:26:17;101306.00;;;34.80;35.27
48968;BME280;46511;53.148;8.204;2022-08-19T07:28:51;101308.41;;;35.07;31.97
48968;BME280;46511;53.148;8.204;2022-08-19T07:31:24;101307.75;;;35.70;30.63
48968;BME280;46511;53.148;8.204;2022-08-19T07:33:57;101305.34;;;35.62;30.06
48968;BME280;46511;53.148;8.204;2022-08-19T07:36:28;101313.16;;;35.41;32.32
48968;BME280;46511;53.148;8.204;2022-08-19T07:39:04;101313.97;;;36.24;30.85
48968;BME280;46511;53.148;8.204;2022-08-19T07:41:37;101318.94;;;35.98;30.13
48968;BME280;46511;53.148;8.204;2022-08-19T07:44:09;101317.78;;;34.87;31.57
48968;BME280;46511;53.148;8.204;2022-08-19T07:46:42;101316.28;;;35.03;31.92
48968;BME280;46511;53.148;8.204;2022-08-19T07:49:16;101324.72;;;36.09;31.23
48968;BME280;46511;53.148;8.204;2022-08-19T07:51:51;101330.91;;;34.92;31.92
48968;BME280;46511;53.148;8.204;2022-08-19T07:54:20;101332.09;;;34.96;30.59
48968;BME280;46511;53.148;8.204;2022-08-19T07:56:54;101333.19;;;34.47;31.01
48968;BME280;46511;53.148;8.204;2022-08-19T07:59:25;101347.28;;;33.77;33.04
48968;BME280;46511;53.148;8.204;2022-08-19T08:01:57;101353.25;;;34.35;31.44
48968;BME280;46511;53.148;8.204;2022-08-19T08:04:31;101356.03;;;35.02;31.21
48968;BME280;46511;53.148;8.204;2022-08-19T08:07:21;101351.47;;;33.30;33.23
48968;BME280;46511;53.148;8.204;2022-08-19T08:10:10;101339.69;;;33.97;32.76
48968;BME280;46511;53.148;8.204;2022-08-19T08:12:42;101346.13;;;34.64;32.10
48968;BME280;46511;53.148;8.204;2022-08-19T08:15:15;101345.13;;;34.04;32.84
48968;BME280;46511;53.148;8.204;2022-08-19T08:17:50;101345.91;;;35.26;31.10
48968;BME280;46511;53.148;8.204;2022-08-19T08:20:21;101353.00;;;34.92;32.02
48968;BME280;46511;53.148;8.204;2022-08-19T08:22:53;101353.41;;;33.22;32.40
48968;BME280;46511;53.148;8.204;2022-08-19T08:25:43;101361.69;;;32.33;34.87
48968;BME280;46511;53.148;8.204;2022-08-19T08:28:15;101365.63;;;31.05;38.46
48968;BME280;46511;53.148;8.204;2022-08-19T08:30:49;101373.44;;;29.91;41.82
48968;BME280;46511;53.148;8.204;2022-08-19T08:33:24;101369.78;;;29.13;44.68
48968;BME280;46511;53.148;8.204;2022-08-19T08:35:56;101380.69;;;28.77;45.45
48968;BME280;46511;53.148;8.204;2022-08-19T08:38:28;101378.50;;;28.87;43.03
48968;BME280;46511;53.148;8.204;2022-08-19T08:41:01;101372.69;;;28.75;43.55
48968;BME280;46511;53.148;8.204;2022-08-19T08:43:44;101373.88;;;30.57;41.61
48968;BME280;46511;53.148;8.204;2022-08-19T08:51:59;101377.16;;;33.55;33.19
48968;BME280;46511;53.148;8.204;2022-08-19T08:54:38;101385.16;;;32.22;36.32
48968;BME280;46511;53.148;8.204;2022-08-19T08:57:17;101376.25;;;31.21;38.43
48968;BME280;46511;53.148;8.204;2022-08-19T08:59:54;101380.66;;;29.70;39.96
48968;BME280;46511;53.148;8.204;2022-08-19T09:02:28;101374.41;;;31.48;37.03
48968;BME280;46511;53.148;8.204;2022-08-19T09:05:00;101375.03;;;31.83;37.47
48968;BME280;46511;53.148;8.204;2022-08-19T09:13:12;101370.28;;;32.50;35.91
48968;BME280;46511;53.148;8.204;2022-08-19T09:16:07;101372.66;;;35.67;31.10
48968;BME280;46511;53.148;8.204;2022-08-19T09:18:47;101362.00;;;36.70;28.84
48968;BME280;46511;53.148;8.204;2022-08-19T09:21:24;101357.41;;;37.49;28.13
48968;BME280;46511;53.148;8.204;2022-08-19T09:23:56;101357.78;;;38.08;27.03
48968;BME280;46511;53.148;8.204;2022-08-19T09:26:29;101347.78;;;39.17;25.54
48968;BME280;46511;53.148;8.204;2022-08-19T09:29:03;101348.78;;;39.05;25.54
48968;BME280;46511;53.148;8.204;2022-08-19T09:31:36;101350.34;;;39.23;25.40
48968;BME280;46511;53.148;8.204;2022-08-19T09:34:07;101365.06;;;37.42;25.93
48968;BME280;46511;53.148;8.204;2022-08-19T09:36:39;101361.81;;;36.48;27.60
48968;BME280;46511;53.148;8.204;2022-08-19T09:39:10;101359.97;;;37.22;27.53
48968;BME280;46511;53.148;8.204;2022-08-19T09:41:42;101345.66;;;36.68;27.00
48968;BME280;46511;53.148;8.204;2022-08-19T09:44:13;101356.41;;;35.47;30.16
48968;BME280;46511;53.148;8.204;2022-08-19T09:46:45;101348.19;;;33.46;30.80
48968;BME280;46511;53.148;8.204;2022-08-19T09:49:18;101357.34;;;32.50;33.31
48968;BME280;46511;53.148;8.204;2022-08-19T09:51:55;101352.53;;;34.95;31.02
48968;BME280;46511;53.148;8.204;2022-08-19T09:54:27;101348.28;;;35.99;26.94
48968;BME280;46511;53.148;8.204;2022-08-19T09:56:59;101349.94;;;37.50;25.72
48968;BME280;46511;53.148;8.204;2022-08-19T09:59:31;101349.50;;;37.24;27.10
48968;BME280;46511;53.148;8.204;2022-08-19T10:02:03;101345.16;;;37.45;26.51
48968;BME280;46511;53.148;8.204;2022-08-19T10:04:34;101351.03;;;37.32;26.05
48968;BME280;46511;53.148;8.204;2022-08-19T10:07:24;101354.06;;;37.81;26.36
48968;BME280;46511;53.148;8.204;2022-08-19T10:09:56;101344.78;;;37.08;26.59
48968;BME280;46511;53.148;8.204;2022-08-19T10:12:27;101347.72;;;38.41;25.45
48968;BME280;46511;53.148;8.204;2022-08-19T10:14:59;101347.03;;;38.50;24.67
48968;BME280;46511;53.148;8.204;2022-08-19T10:17:31;101348.19;;;38.33;24.50
48968;BME280;46511;53.148;8.204;2022-08-19T10:20:06;101338.69;;;39.58;23.67
48968;BME280;46511;53.148;8.204;2022-08-19T10:22:37;101335.38;;;39.29;23.39
48968;BME280;46511;53.148;8.204;2022-08-19T10:25:09;101330.13;;;39.65;22.67
48968;BME280;46511;53.148;8.204;2022-08-19T10:27:40;101318.22;;;39.37;22.55
48968;BME280;46511;53.148;8.204;2022-08-19T10:30:12;101340.78;;;40.25;22.06
48968;BME280;46511;53.148;8.204;2022-08-19T10:32:44;101337.50;;;39.86;21.55
48968;BME280;46511;53.148;8.204;2022-08-19T10:35:16;101332.38;;;40.68;21.55
48968;BME280;46511;53.148;8.204;2022-08-19T10:37:48;101334.84;;;40.59;21.38
48968;BME280;46511;53.148;8.204;2022-08-19T10:40:19;101342.53;;;41.35;20.23
48968;BME280;46511;53.148;8.204;2022-08-19T10:42:50;101326.50;;;42.22;19.99
48968;BME280;46511;53.148;8.204;2022-08-19T10:45:22;101321.16;;;42.26;20.48
48968;BME280;46511;53.148;8.204;2022-08-19T10:47:56;101312.13;;;42.49;19.67
48968;BME280;46511;53.148;8.204;2022-08-19T10:50:28;101312.13;;;42.54;19.19
48968;BME280;46511;53.148;8.204;2022-08-19T10:53:17;101313.81;;;42.55;19.44
48968;BME280;46511;53.148;8.204;2022-08-19T10:55:50;101306.53;;;42.49;19.90
48968;BME280;46511;53.148;8.204;2022-08-19T10:58:40;101299.50;;;41.87;20.16
48968;BME280;46511;53.148;8.204;2022-08-19T11:01:12;101304.84;;;42.58;19.88
48968;BME280;46511;53.148;8.204;2022-08-19T11:03:43;101303.69;;;42.00;20.33
48968;BME280;46511;53.148;8.204;2022-08-19T11:06:16;101305.72;;;41.53;20.02
48968;BME280;46511;53.148;8.204;2022-08-19T11:08:47;101306.25;;;41.50;21.02
48968;BME280;46511;53.148;8.204;2022-08-19T11:11:18;101307.97;;;42.41;18.85
48968;BME280;46511;53.148;8.204;2022-08-19T11:13:49;101309.22;;;43.77;19.68
48968;BME280;46511;53.148;8.204;2022-08-19T11:16:22;101308.22;;;41.04;19.46
48968;BME280;46511;53.148;8.204;2022-08-19T11:18:54;101313.22;;;40.87;20.54
48968;BME280;46511;53.148;8.204;2022-08-19T11:21:33;101301.78;;;41.75;19.96
48968;BME280;46511;53.148;8.204;2022-08-19T11:24:06;101296.50;;;42.53;18.55
48968;BME280;46511;53.148;8.204;2022-08-19T11:26:38;101299.50;;;41.87;19.62
48968;BME280;46511;53.148;8.204;2022-08-19T11:29:10;101304.09;;;42.37;19.73
48968;BME280;46511;53.148;8.204;2022-08-19T11:31:43;101300.44;;;42.96;17.65
48968;BME280;46511;53.148;8.204;2022-08-19T11:34:16;101282.63;;;45.03;16.44
48968;BME280;46511;53.148;8.204;2022-08-19T11:36:48;101292.56;;;43.91;17.58
48968;BME280;46511;53.148;8.204;2022-08-19T11:39:21;101285.06;;;42.89;18.86
48968;BME280;46511;53.148;8.204;2022-08-19T11:41:52;101300.00;;;42.14;19.77
48968;BME280;46511;53.148;8.204;2022-08-19T11:44:24;101300.25;;;42.77;18.65
48968;BME280;46511;53.148;8.204;2022-08-19T11:46:51;101295.59;;;43.07;20.34
48968;BME280;46511;53.148;8.204;2022-08-19T11:49:23;101295.88;;;42.61;19.62
48968;BME280;46511;53.148;8.204;2022-08-19T11:51:54;101294.22;;;42.60;18.20
48968;BME280;46511;53.148;8.204;2022-08-19T11:54:26;101298.97;;;40.78;21.14
48968;BME280;46511;53.148;8.204;2022-08-19T11:56:57;101307.50;;;42.29;19.64
48968;BME280;46511;53.148;8.204;2022-08-19T11:59:29;101307.66;;;41.73;20.07
48968;BME280;46511;53.148;8.204;2022-08-19T12:02:00;101303.09;;;42.08;19.95
48968;BME280;46511;53.148;8.204;2022-08-19T12:04:31;101306.06;;;42.86;20.53
48968;BME280;46511;53.148;8.204;2022-08-19T12:07:02;101301.03;;;42.39;19.96
48968;BME280;46511;53.148;8.204;2022-08-19T12:09:34;101303.97;;;41.93;19.99
48968;BME280;46511;53.148;8.204;2022-08-19T12:12:06;101309.41;;;42.34;19.06
48968;BME280;46511;53.148;8.204;2022-08-19T12:14:37;101296.13;;;43.09;18.43
48968;BME280;46511;53.148;8.204;2022-08-19T12:17:08;101301.72;;;41.95;18.82
48968;BME280;46511;53.148;8.204;2022-08-19T12:19:40;101295.03;;;42.61;18.51
48968;BME280;46511;53.148;8.204;2022-08-19T12:22:11;101288.84;;;43.13;19.32
48968;BME280;46511;53.148;8.204;2022-08-19T12:24:43;101282.22;;;44.34;16.81
48968;BME280;46511;53.148;8.204;2022-08-19T12:27:14;101288.09;;;43.31;17.45
48968;BME280;46511;53.148;8.204;2022-08-19T12:29:45;101284.53;;;42.87;18.15
48968;BME280;46511;53.148;8.204;2022-08-19T12:32:17;101274.75;;;40.94;20.11
48968;BME280;46511;53.148;8.204;2022-08-19T12:34:48;101280.47;;;42.14;19.58
48968;BME280;46511;53.148;8.204;2022-08-19T12:37:19;101282.06;;;42.31;18.51
48968;BME280;46511;53.148;8.204;2022-08-19T12:39:50;101274.59;;;42.70;18.18
48968;BME280;46511;53.148;8.204;2022-08-19T12:42:17;101274.41;;;41.92;18.82
48968;BME280;46511;53.148;8.204;2022-08-19T12:44:48;101274.47;;;41.72;18.19
48968;BME280;46511;53.148;8.204;2022-08-19T12:47:20;101265.84;;;41.17;19.26
48968;BME280;46511;53.148;8.204;2022-08-19T12:49:51;101268.75;;;42.12;18.80
48968;BME280;46511;53.148;8.204;2022-08-19T12:52:23;101266.38;;;43.81;18.16
48968;BME280;46511;53.148;8.204;2022-08-19T12:54:56;101268.84;;;41.82;19.04
48968;BME280;46511;53.148;8.204;2022-08-19T12:57:27;101263.81;;;40.62;20.29
48968;BME280;46511;53.148;8.204;2022-08-19T13:00:04;101261.09;;;41.18;19.76
48968;BME280;46511;53.148;8.204;2022-08-19T13:02:38;101268.88;;;41.61;20.37
48968;BME280;46511;53.148;8.204;2022-08-19T13:05:11;101270.34;;;42.29;19.49
48968;BME280;46511;53.148;8.204;2022-08-19T13:07:43;101263.53;;;40.53;22.48
48968;BME280;46511;53.148;8.204;2022-08-19T13:10:18;101264.38;;;39.49;22.26
48968;BME280;46511;53.148;8.204;2022-08-19T13:12:51;101268.72;;;40.34;21.16
48968;BME280;46511;53.148;8.204;2022-08-19T13:15:25;101268.59;;;39.19;22.12
48968;BME280;46511;53.148;8.204;2022-08-19T13:17:56;101271.81;;;39.06;23.87
48968;BME280;46511;53.148;8.204;2022-08-19T13:20:28;101266.88;;;39.97;21.12
48968;BME280;46511;53.148;8.204;2022-08-19T13:22:59;101263.53;;;39.90;22.34
48968;BME280;46511;53.148;8.204;2022-08-19T13:25:31;101264.53;;;39.69;21.33
48968;BME280;46511;53.148;8.204;2022-08-19T13:28:02;101258.28;;;39.52;20.83